Aérodrome :
LOGIN :

S'inscrire | Disclaimer

   EN    FR    IT 

 










Légende :    VFR   VFR Marginal   IFR   IFR Intensif   IFR Très Intensif
Visi : 
Plafond : 
>= 8 km
>= 3000ft
5 à 8 km
1000 à 3000 ft
1500m à 5 km
500 à 1000 ft
800 à 1500m
200 à 500 ft
< 800m
< 200 ft
Symboles :   Orages  Brouillard  Fortes neiges  Fortes précipitations  Vent > 20 kt
SIGMETs :   Divers  Orages  Givrage  Turbulence  Onde Orograph.  Cendres Volcan.






- Altitude de l'aérodrome : 79 ft
- Code IATA : SPU


LDSP - Split

DERNIER METAR :
  • 162130Z 33004KT 290V020 CAVOK 22/14 Q1013 NOSIG

METARs EXPIRÉS :
  • 162100Z 35004KT CAVOK 22/14 Q1013 NOSIG
  • 162030Z 02004KT 330V030 CAVOK 21/14 Q1013 NOSIG
  • 162000Z 23002KT CAVOK 23/16 Q1013 NOSIG
  • 161930Z 24004KT CAVOK 23/15 Q1013 NOSIG
  • 161900Z 25005KT CAVOK 23/16 Q1012 NOSIG
  • 161830Z 25005KT CAVOK 24/16 Q1012 NOSIG
  • 161800Z 24007KT CAVOK 24/16 Q1011 NOSIG
  • 161730Z 24006KT CAVOK 25/15 Q1011 NOSIG

TAF TAF LDSP
Valide du 16 à 18h jusqu'au 17 à 18h UTC


161725Z 1618/1718 VRB02KT CAVOK TX31/1714Z TN17/1703Z
BECMG 1709/1711 23010KT
BECMG 1713/1715 32010KT



MET'MAP, la Météo Aéronautique d'un coup d'oeil ! - Copyright ORBIFLY Décembre 2007 - Disclaimer

ORBIFLY MET'MAP TEAM :

Programmation & Développement : Alexandra Zaïnal
Sur une idée originale de : Baudouin d'Aumeries
Soutien technique & logistique : Manuel Goepfert
Assistance : Marc-Olivier Méhu




SOURCES & CREDITS :

   NOAA